Airfield :
LOGIN :

Register | Disclaimer

   EN    FR    IT 

 










Legend :    VFR   Marginal VFR   IFR   Intensive IFR   Very Intensive IFR
Visi :
Ceiling :
>= 8 km
>= 3000ft
5 to 8 km
1000 to 3000 ft
1500m to 5 km
500 to 1000 ft
800 to 1500m
200 to 500 ft
< 800m
< 200 ft
Symbols :   Thunderstorms  Fog  Heavy snow  Heavy precipitations  Wind > 20 kt
SIGMETs :     Misc.  Thunderstorms  Icing  Turbulence  Mountain Waves  Volcanic Ashes







- Airport Elevation : 97 ft
- IATA code : EBJ


EKEB - Esbjerg

CURRENT METAR :
  • 211720Z AUTO 30011KT 3500 BR BKN002/// 07/07 Q1023

EXPIRED METARs :
  • 211650Z AUTO 29008KT 3400 BR OVC003/// 07/07 Q1022
  • 211620Z AUTO 29007KT 5000 OVC003/// 08/07 Q1021
  • 211550Z AUTO 29008KT 5000 OVC003/// 08/07 Q1021
  • 211520Z AUTO 29009KT 7000 OVC004/// 08/07 Q1021
  • 211450Z AUTO 28009KT 7000 OVC005/// 08/08 Q1021

TAF TAF EKEB
Valid from the 21 at 18:00 until the 21 at 23:00 UTC


211725Z 2118/2123 34008KT 3500 BR -RADZ BKN004
TEMPO 2118/2123 0500 FG BKN001
No reported NOTAMs for that airfield.



MET'MAP, your aeronautical weather chart ! - Copyright ORBIFLY December 2007 - Disclaimer

ORBIFLY MET'MAP TEAM :

Programming & Development : Alexandra Zaïnal
Concept & Development : Baudouin d'Aumeries
Co-Development & Prog : Marc-Olivier Méhu
Technical & hardware support : Manuel Goepfert

Contact : metmap@orbifly.com




SOURCES & CREDITS :

   NOAA